sensor_id;sensor_type;location;lat;lon;timestamp;P1;durP1;ratioP1;P2;durP2;ratioP2
18793;SDS011;29610;49.022;12.114;2022-11-21T00:00:20;12.63;;;6.13;;
18793;SDS011;29610;49.022;12.114;2022-11-21T00:02:49;12.30;;;5.10;;
18793;SDS011;29610;49.022;12.114;2022-11-21T00:05:19;11.27;;;6.03;;
18793;SDS011;29610;49.022;12.114;2022-11-21T00:07:48;12.97;;;5.97;;
18793;SDS011;29610;49.022;12.114;2022-11-21T00:10:16;11.20;;;5.60;;
18793;SDS011;29610;49.022;12.114;2022-11-21T00:12:45;12.83;;;5.20;;
18793;SDS011;29610;49.022;12.114;2022-11-21T00:15:13;12.77;;;4.67;;
18793;SDS011;29610;49.022;12.114;2022-11-21T00:17:42;10.00;;;5.20;;
18793;SDS011;29610;49.022;12.114;2022-11-21T00:20:11;10.33;;;5.00;;
18793;SDS011;29610;49.022;12.114;2022-11-21T00:22:41;10.70;;;4.77;;
18793;SDS011;29610;49.022;12.114;2022-11-21T00:25:09;9.67;;;4.83;;
18793;SDS011;29610;49.022;12.114;2022-11-21T00:27:38;14.30;;;4.57;;
18793;SDS011;29610;49.022;12.114;2022-11-21T00:30:09;9.70;;;4.40;;
18793;SDS011;29610;49.022;12.114;2022-11-21T00:32:39;8.53;;;4.00;;
18793;SDS011;29610;49.022;12.114;2022-11-21T00:35:07;8.60;;;3.83;;
18793;SDS011;29610;49.022;12.114;2022-11-21T00:37:36;7.43;;;3.30;;
18793;SDS011;29610;49.022;12.114;2022-11-21T00:40:06;10.27;;;3.57;;
18793;SDS011;29610;49.022;12.114;2022-11-21T00:42:37;8.63;;;3.80;;
18793;SDS011;29610;49.022;12.114;2022-11-21T00:45:05;7.30;;;2.73;;
18793;SDS011;29610;49.022;12.114;2022-11-21T00:47:34;8.23;;;3.67;;
18793;SDS011;29610;49.022;12.114;2022-11-21T00:50:03;10.00;;;4.23;;
18793;SDS011;29610;49.022;12.114;2022-11-21T00:52:33;8.27;;;3.60;;
18793;SDS011;29610;49.022;12.114;2022-11-21T00:55:01;8.33;;;3.23;;
18793;SDS011;29610;49.022;12.114;2022-11-21T00:57:31;7.90;;;3.23;;
18793;SDS011;29610;49.022;12.114;2022-11-21T01:00:00;8.83;;;3.40;;
18793;SDS011;29610;49.022;12.114;2022-11-21T01:02:30;8.30;;;3.67;;
18793;SDS011;29610;49.022;12.114;2022-11-21T01:05:00;10.03;;;3.63;;
18793;SDS011;29610;49.022;12.114;2022-11-21T01:07:29;10.73;;;3.47;;
18793;SDS011;29610;49.022;12.114;2022-11-21T01:09:58;8.87;;;3.70;;
18793;SDS011;29610;49.022;12.114;2022-11-21T01:12:27;8.47;;;3.80;;
18793;SDS011;29610;49.022;12.114;2022-11-21T01:14:57;8.90;;;4.07;;
18793;SDS011;29610;49.022;12.114;2022-11-21T01:17:25;9.10;;;3.80;;
18793;SDS011;29610;49.022;12.114;2022-11-21T01:19:54;8.63;;;4.00;;
18793;SDS011;29610;49.022;12.114;2022-11-21T01:22:22;11.10;;;3.83;;
18793;SDS011;29610;49.022;12.114;2022-11-21T01:24:51;10.63;;;4.23;;
18793;SDS011;29610;49.022;12.114;2022-11-21T01:27:19;8.57;;;3.30;;
18793;SDS011;29610;49.022;12.114;2022-11-21T01:29:48;7.50;;;3.20;;
18793;SDS011;29610;49.022;12.114;2022-11-21T01:32:19;9.00;;;2.83;;
18793;SDS011;29610;49.022;12.114;2022-11-21T01:34:48;10.40;;;3.90;;
18793;SDS011;29610;49.022;12.114;2022-11-21T01:37:18;8.30;;;3.80;;
18793;SDS011;29610;49.022;12.114;2022-11-21T01:39:47;11.50;;;3.50;;
18793;SDS011;29610;49.022;12.114;2022-11-21T01:42:17;11.90;;;3.10;;
18793;SDS011;29610;49.022;12.114;2022-11-21T01:44:47;9.97;;;3.43;;
18793;SDS011;29610;49.022;12.114;2022-11-21T01:47:20;9.90;;;3.20;;
18793;SDS011;29610;49.022;12.114;2022-11-21T01:49:49;10.17;;;3.63;;
18793;SDS011;29610;49.022;12.114;2022-11-21T01:52:22;10.33;;;3.27;;
18793;SDS011;29610;49.022;12.114;2022-11-21T01:54:56;7.53;;;2.83;;
18793;SDS011;29610;49.022;12.114;2022-11-21T01:57:31;9.70;;;3.77;;
18793;SDS011;29610;49.022;12.114;2022-11-21T02:00:07;14.20;;;3.50;;
18793;SDS011;29610;49.022;12.114;2022-11-21T02:02:44;7.67;;;2.70;;
18793;SDS011;29610;49.022;12.114;2022-11-21T02:05:20;9.07;;;3.27;;
18793;SDS011;29610;49.022;12.114;2022-11-21T02:07:56;7.30;;;3.17;;
18793;SDS011;29610;49.022;12.114;2022-11-21T02:10:33;8.20;;;3.50;;
18793;SDS011;29610;49.022;12.114;2022-11-21T02:13:04;11.50;;;3.20;;
18793;SDS011;29610;49.022;12.114;2022-11-21T02:15:35;9.20;;;3.30;;
18793;SDS011;29610;49.022;12.114;2022-11-21T02:18:07;10.73;;;3.70;;
18793;SDS011;29610;49.022;12.114;2022-11-21T02:20:39;10.13;;;2.93;;
18793;SDS011;29610;49.022;12.114;2022-11-21T02:23:17;10.53;;;3.10;;
18793;SDS011;29610;49.022;12.114;2022-11-21T02:26:00;11.30;;;3.27;;
18793;SDS011;29610;49.022;12.114;2022-11-21T02:28:29;11.47;;;3.10;;
18793;SDS011;29610;49.022;12.114;2022-11-21T02:30:58;8.30;;;3.80;;
18793;SDS011;29610;49.022;12.114;2022-11-21T02:33:27;10.43;;;3.83;;
18793;SDS011;29610;49.022;12.114;2022-11-21T02:35:57;8.03;;;3.27;;
18793;SDS011;29610;49.022;12.114;2022-11-21T02:38:28;17.40;;;3.50;;
18793;SDS011;29610;49.022;12.114;2022-11-21T02:41:03;7.90;;;3.23;;
18793;SDS011;29610;49.022;12.114;2022-11-21T02:43:40;8.60;;;3.20;;
18793;SDS011;29610;49.022;12.114;2022-11-21T02:46:14;9.03;;;3.27;;
18793;SDS011;29610;49.022;12.114;2022-11-21T02:48:43;7.73;;;3.50;;
18793;SDS011;29610;49.022;12.114;2022-11-21T02:51:12;8.43;;;3.30;;
18793;SDS011;29610;49.022;12.114;2022-11-21T02:53:40;9.10;;;3.03;;
18793;SDS011;29610;49.022;12.114;2022-11-21T02:56:10;7.40;;;2.97;;
18793;SDS011;29610;49.022;12.114;2022-11-21T02:58:39;10.53;;;3.43;;
18793;SDS011;29610;49.022;12.114;2022-11-21T03:01:08;11.10;;;3.87;;
18793;SDS011;29610;49.022;12.114;2022-11-21T03:03:37;10.17;;;3.70;;
18793;SDS011;29610;49.022;12.114;2022-11-21T03:06:05;12.33;;;4.60;;
18793;SDS011;29610;49.022;12.114;2022-11-21T03:08:34;8.17;;;3.93;;
18793;SDS011;29610;49.022;12.114;2022-11-21T03:11:02;8.73;;;4.13;;
18793;SDS011;29610;49.022;12.114;2022-11-21T03:13:32;12.00;;;4.80;;
18793;SDS011;29610;49.022;12.114;2022-11-21T03:16:01;11.93;;;4.20;;
18793;SDS011;29610;49.022;12.114;2022-11-21T03:18:29;10.17;;;4.47;;
18793;SDS011;29610;49.022;12.114;2022-11-21T03:20:58;8.63;;;4.33;;
18793;SDS011;29610;49.022;12.114;2022-11-21T03:23:26;10.90;;;4.47;;
18793;SDS011;29610;49.022;12.114;2022-11-21T03:25:55;8.97;;;3.70;;
18793;SDS011;29610;49.022;12.114;2022-11-21T03:28:25;8.77;;;3.83;;
18793;SDS011;29610;49.022;12.114;2022-11-21T03:30:55;9.20;;;4.30;;
18793;SDS011;29610;49.022;12.114;2022-11-21T03:33:24;10.00;;;4.03;;
18793;SDS011;29610;49.022;12.114;2022-11-21T03:35:52;6.90;;;3.07;;
18793;SDS011;29610;49.022;12.114;2022-11-21T03:38:21;14.43;;;4.00;;
18793;SDS011;29610;49.022;12.114;2022-11-21T03:40:49;7.93;;;3.20;;
18793;SDS011;29610;49.022;12.114;2022-11-21T03:43:18;9.07;;;3.40;;
18793;SDS011;29610;49.022;12.114;2022-11-21T03:45:47;10.77;;;3.50;;
18793;SDS011;29610;49.022;12.114;2022-11-21T03:48:17;9.27;;;3.60;;
18793;SDS011;29610;49.022;12.114;2022-11-21T03:50:45;8.50;;;3.80;;
18793;SDS011;29610;49.022;12.114;2022-11-21T03:53:14;7.30;;;3.20;;
18793;SDS011;29610;49.022;12.114;2022-11-21T03:55:42;7.63;;;3.13;;
18793;SDS011;29610;49.022;12.114;2022-11-21T03:58:11;6.60;;;2.70;;
18793;SDS011;29610;49.022;12.114;2022-11-21T04:00:40;8.23;;;2.27;;
18793;SDS011;29610;49.022;12.114;2022-11-21T04:03:08;6.27;;;2.33;;
18793;SDS011;29610;49.022;12.114;2022-11-21T04:05:38;6.90;;;2.90;;
18793;SDS011;29610;49.022;12.114;2022-11-21T04:08:06;6.97;;;2.67;;
18793;SDS011;29610;49.022;12.114;2022-11-21T04:10:35;7.73;;;2.60;;
18793;SDS011;29610;49.022;12.114;2022-11-21T04:13:03;6.90;;;2.43;;
18793;SDS011;29610;49.022;12.114;2022-11-21T04:15:32;8.17;;;3.00;;
18793;SDS011;29610;49.022;12.114;2022-11-21T04:18:00;7.73;;;2.17;;
18793;SDS011;29610;49.022;12.114;2022-11-21T04:20:29;6.13;;;2.20;;
18793;SDS011;29610;49.022;12.114;2022-11-21T04:22:59;12.33;;;2.83;;
18793;SDS011;29610;49.022;12.114;2022-11-21T04:25:27;6.93;;;2.50;;
18793;SDS011;29610;49.022;12.114;2022-11-21T04:27:56;9.80;;;2.83;;
18793;SDS011;29610;49.022;12.114;2022-11-21T04:30:25;6.90;;;2.77;;
18793;SDS011;29610;49.022;12.114;2022-11-21T04:32:55;7.57;;;2.37;;
18793;SDS011;29610;49.022;12.114;2022-11-21T04:35:24;6.83;;;2.97;;
18793;SDS011;29610;49.022;12.114;2022-11-21T04:37:53;10.57;;;2.53;;
18793;SDS011;29610;49.022;12.114;2022-11-21T04:40:23;7.23;;;2.57;;
18793;SDS011;29610;49.022;12.114;2022-11-21T04:42:52;8.73;;;3.27;;
18793;SDS011;29610;49.022;12.114;2022-11-21T04:45:20;7.80;;;2.80;;
18793;SDS011;29610;49.022;12.114;2022-11-21T04:47:49;9.67;;;3.20;;
18793;SDS011;29610;49.022;12.114;2022-11-21T04:50:17;7.27;;;2.40;;
18793;SDS011;29610;49.022;12.114;2022-11-21T04:52:50;9.50;;;2.80;;
18793;SDS011;29610;49.022;12.114;2022-11-21T04:55:22;6.10;;;2.50;;
18793;SDS011;29610;49.022;12.114;2022-11-21T04:57:56;7.80;;;2.00;;
18793;SDS011;29610;49.022;12.114;2022-11-21T05:00:25;8.67;;;2.80;;
18793;SDS011;29610;49.022;12.114;2022-11-21T05:02:53;8.93;;;3.03;;
18793;SDS011;29610;49.022;12.114;2022-11-21T05:05:22;7.20;;;2.93;;
18793;SDS011;29610;49.022;12.114;2022-11-21T05:07:50;11.17;;;2.90;;
18793;SDS011;29610;49.022;12.114;2022-11-21T05:10:19;11.80;;;3.47;;
18793;SDS011;29610;49.022;12.114;2022-11-21T05:12:54;7.23;;;2.43;;
18793;SDS011;29610;49.022;12.114;2022-11-21T05:15:42;7.87;;;2.20;;
18793;SDS011;29610;49.022;12.114;2022-11-21T05:18:10;8.23;;;2.67;;
18793;SDS011;29610;49.022;12.114;2022-11-21T05:20:39;13.80;;;2.67;;
18793;SDS011;29610;49.022;12.114;2022-11-21T05:23:07;6.27;;;1.97;;
18793;SDS011;29610;49.022;12.114;2022-11-21T05:25:36;7.10;;;2.37;;
18793;SDS011;29610;49.022;12.114;2022-11-21T05:28:06;6.23;;;2.00;;
18793;SDS011;29610;49.022;12.114;2022-11-21T05:30:34;5.63;;;1.60;;
18793;SDS011;29610;49.022;12.114;2022-11-21T05:33:03;11.30;;;2.50;;
18793;SDS011;29610;49.022;12.114;2022-11-21T05:35:32;7.23;;;2.57;;
18793;SDS011;29610;49.022;12.114;2022-11-21T05:38:08;6.63;;;2.33;;
18793;SDS011;29610;49.022;12.114;2022-11-21T05:40:37;6.00;;;2.20;;
18793;SDS011;29610;49.022;12.114;2022-11-21T05:43:08;5.53;;;1.97;;
18793;SDS011;29610;49.022;12.114;2022-11-21T05:45:55;8.60;;;2.10;;
18793;SDS011;29610;49.022;12.114;2022-11-21T05:48:24;10.03;;;2.10;;
18793;SDS011;29610;49.022;12.114;2022-11-21T05:50:53;6.17;;;2.10;;
18793;SDS011;29610;49.022;12.114;2022-11-21T05:53:21;9.83;;;2.20;;
18793;SDS011;29610;49.022;12.114;2022-11-21T05:55:50;7.60;;;2.10;;
18793;SDS011;29610;49.022;12.114;2022-11-21T05:58:20;5.60;;;1.90;;
18793;SDS011;29610;49.022;12.114;2022-11-21T06:00:49;5.20;;;1.60;;
18793;SDS011;29610;49.022;12.114;2022-11-21T06:03:25;5.93;;;2.07;;
18793;SDS011;29610;49.022;12.114;2022-11-21T06:06:00;5.97;;;1.53;;
18793;SDS011;29610;49.022;12.114;2022-11-21T06:08:32;7.17;;;1.90;;
18793;SDS011;29610;49.022;12.114;2022-11-21T06:11:03;5.70;;;2.00;;
18793;SDS011;29610;49.022;12.114;2022-11-21T06:13:34;11.70;;;2.23;;
18793;SDS011;29610;49.022;12.114;2022-11-21T06:16:04;6.00;;;1.90;;
18793;SDS011;29610;49.022;12.114;2022-11-21T06:18:35;5.87;;;2.00;;
18793;SDS011;29610;49.022;12.114;2022-11-21T06:21:06;5.70;;;2.00;;
18793;SDS011;29610;49.022;12.114;2022-11-21T06:23:40;5.43;;;1.43;;
18793;SDS011;29610;49.022;12.114;2022-11-21T06:26:10;5.73;;;1.70;;
18793;SDS011;29610;49.022;12.114;2022-11-21T06:28:42;5.20;;;1.50;;
18793;SDS011;29610;49.022;12.114;2022-11-21T06:31:13;5.73;;;1.70;;
18793;SDS011;29610;49.022;12.114;2022-11-21T06:33:44;13.33;;;1.80;;
18793;SDS011;29610;49.022;12.114;2022-11-21T06:36:13;5.43;;;1.50;;
18793;SDS011;29610;49.022;12.114;2022-11-21T06:38:44;5.13;;;1.33;;
18793;SDS011;29610;49.022;12.114;2022-11-21T06:41:14;7.00;;;1.60;;
18793;SDS011;29610;49.022;12.114;2022-11-21T06:43:46;5.87;;;1.60;;
18793;SDS011;29610;49.022;12.114;2022-11-21T06:46:15;5.17;;;1.43;;
18793;SDS011;29610;49.022;12.114;2022-11-21T06:48:44;5.80;;;1.77;;
18793;SDS011;29610;49.022;12.114;2022-11-21T06:51:15;5.17;;;1.47;;
18793;SDS011;29610;49.022;12.114;2022-11-21T06:53:46;5.57;;;1.43;;
18793;SDS011;29610;49.022;12.114;2022-11-21T06:56:21;7.07;;;1.80;;
18793;SDS011;29610;49.022;12.114;2022-11-21T06:58:52;5.17;;;1.43;;
18793;SDS011;29610;49.022;12.114;2022-11-21T07:01:21;6.00;;;1.33;;
18793;SDS011;29610;49.022;12.114;2022-11-21T07:03:52;6.57;;;1.80;;
18793;SDS011;29610;49.022;12.114;2022-11-21T07:06:21;5.97;;;1.60;;
18793;SDS011;29610;49.022;12.114;2022-11-21T07:08:51;5.60;;;1.73;;
18793;SDS011;29610;49.022;12.114;2022-11-21T07:11:40;5.27;;;1.60;;
18793;SDS011;29610;49.022;12.114;2022-11-21T07:14:11;5.73;;;1.60;;
18793;SDS011;29610;49.022;12.114;2022-11-21T07:16:39;6.10;;;1.80;;
18793;SDS011;29610;49.022;12.114;2022-11-21T07:19:07;5.73;;;1.97;;
18793;SDS011;29610;49.022;12.114;2022-11-21T07:21:36;5.73;;;1.53;;
18793;SDS011;29610;49.022;12.114;2022-11-21T07:24:04;9.83;;;1.90;;
18793;SDS011;29610;49.022;12.114;2022-11-21T07:26:33;5.43;;;1.77;;
18793;SDS011;29610;49.022;12.114;2022-11-21T07:29:02;5.50;;;1.60;;
18793;SDS011;29610;49.022;12.114;2022-11-21T07:31:32;5.60;;;1.50;;
18793;SDS011;29610;49.022;12.114;2022-11-21T07:34:00;7.07;;;1.90;;
18793;SDS011;29610;49.022;12.114;2022-11-21T07:36:29;5.93;;;1.87;;
18793;SDS011;29610;49.022;12.114;2022-11-21T07:38:58;6.63;;;1.93;;
18793;SDS011;29610;49.022;12.114;2022-11-21T07:41:27;7.00;;;2.47;;
18793;SDS011;29610;49.022;12.114;2022-11-21T07:43:55;5.97;;;1.93;;
18793;SDS011;29610;49.022;12.114;2022-11-21T07:46:24;5.87;;;1.87;;
18793;SDS011;29610;49.022;12.114;2022-11-21T07:48:54;6.77;;;2.70;;
18793;SDS011;29610;49.022;12.114;2022-11-21T07:51:28;6.03;;;1.93;;
18793;SDS011;29610;49.022;12.114;2022-11-21T07:53:57;5.80;;;1.90;;
18793;SDS011;29610;49.022;12.114;2022-11-21T07:56:26;6.27;;;2.20;;
18793;SDS011;29610;49.022;12.114;2022-11-21T07:58:54;6.20;;;2.23;;
18793;SDS011;29610;49.022;12.114;2022-11-21T08:01:23;7.83;;;1.67;;
18793;SDS011;29610;49.022;12.114;2022-11-21T08:03:53;6.63;;;2.40;;
18793;SDS011;29610;49.022;12.114;2022-11-21T08:06:22;6.10;;;2.07;;
18793;SDS011;29610;49.022;12.114;2022-11-21T08:08:51;5.73;;;1.80;;
18793;SDS011;29610;49.022;12.114;2022-11-21T08:11:20;6.50;;;2.70;;
18793;SDS011;29610;49.022;12.114;2022-11-21T08:13:49;9.87;;;2.07;;
18793;SDS011;29610;49.022;12.114;2022-11-21T08:16:17;8.90;;;1.87;;
18793;SDS011;29610;49.022;12.114;2022-11-21T08:18:48;6.60;;;1.93;;
18793;SDS011;29610;49.022;12.114;2022-11-21T08:21:18;6.87;;;1.60;;
18793;SDS011;29610;49.022;12.114;2022-11-21T08:23:47;9.13;;;1.70;;
18793;SDS011;29610;49.022;12.114;2022-11-21T08:26:16;6.40;;;1.63;;
18793;SDS011;29610;49.022;12.114;2022-11-21T08:28:45;6.20;;;1.70;;
18793;SDS011;29610;49.022;12.114;2022-11-21T08:31:13;6.57;;;1.77;;
18793;SDS011;29610;49.022;12.114;2022-11-21T08:33:42;11.60;;;2.17;;
18793;SDS011;29610;49.022;12.114;2022-11-21T08:36:11;8.07;;;1.80;;
18793;SDS011;29610;49.022;12.114;2022-11-21T08:38:41;5.33;;;1.27;;
18793;SDS011;29610;49.022;12.114;2022-11-21T08:41:10;6.33;;;1.70;;
18793;SDS011;29610;49.022;12.114;2022-11-21T08:43:56;5.43;;;1.27;;
18793;SDS011;29610;49.022;12.114;2022-11-21T08:46:25;7.63;;;1.40;;
18793;SDS011;29610;49.022;12.114;2022-11-21T08:48:53;6.40;;;1.87;;
18793;SDS011;29610;49.022;12.114;2022-11-21T08:51:22;7.00;;;1.60;;
18793;SDS011;29610;49.022;12.114;2022-11-21T08:53:52;7.33;;;1.70;;
18793;SDS011;29610;49.022;12.114;2022-11-21T08:56:20;6.97;;;1.70;;
18793;SDS011;29610;49.022;12.114;2022-11-21T08:58:49;6.60;;;1.40;;
18793;SDS011;29610;49.022;12.114;2022-11-21T09:01:18;7.43;;;1.70;;
18793;SDS011;29610;49.022;12.114;2022-11-21T09:03:47;6.20;;;1.70;;
18793;SDS011;29610;49.022;12.114;2022-11-21T09:06:15;7.37;;;1.77;;
18793;SDS011;29610;49.022;12.114;2022-11-21T09:08:44;5.80;;;1.50;;
18793;SDS011;29610;49.022;12.114;2022-11-21T09:11:15;8.30;;;1.43;;
18793;SDS011;29610;49.022;12.114;2022-11-21T09:13:44;7.40;;;1.50;;
18793;SDS011;29610;49.022;12.114;2022-11-21T09:16:33;6.60;;;1.33;;
18793;SDS011;29610;49.022;12.114;2022-11-21T09:19:27;5.83;;;1.20;;
18793;SDS011;29610;49.022;12.114;2022-11-21T09:21:56;5.63;;;1.03;;
18793;SDS011;29610;49.022;12.114;2022-11-21T09:24:25;5.83;;;1.10;;
18793;SDS011;29610;49.022;12.114;2022-11-21T09:26:55;8.93;;;1.40;;
18793;SDS011;29610;49.022;12.114;2022-11-21T09:29:24;5.90;;;1.10;;
18793;SDS011;29610;49.022;12.114;2022-11-21T09:31:53;7.20;;;1.13;;
18793;SDS011;29610;49.022;12.114;2022-11-21T09:34:21;6.40;;;1.27;;
18793;SDS011;29610;49.022;12.114;2022-11-21T09:36:50;5.90;;;1.27;;
18793;SDS011;29610;49.022;12.114;2022-11-21T09:39:20;6.83;;;1.33;;
18793;SDS011;29610;49.022;12.114;2022-11-21T09:41:52;7.47;;;1.60;;
18793;SDS011;29610;49.022;12.114;2022-11-21T09:44:52;7.57;;;1.70;;
18793;SDS011;29610;49.022;12.114;2022-11-21T09:47:44;7.70;;;1.30;;
18793;SDS011;29610;49.022;12.114;2022-11-21T09:50:20;6.93;;;1.17;;
18793;SDS011;29610;49.022;12.114;2022-11-21T09:52:59;6.00;;;1.10;;
18793;SDS011;29610;49.022;12.114;2022-11-21T09:55:36;7.20;;;1.47;;
18793;SDS011;29610;49.022;12.114;2022-11-21T09:58:23;5.97;;;1.20;;
18793;SDS011;29610;49.022;12.114;2022-11-21T10:00:58;6.33;;;1.00;;
18793;SDS011;29610;49.022;12.114;2022-11-21T10:03:29;6.37;;;1.20;;
18793;SDS011;29610;49.022;12.114;2022-11-21T10:06:08;10.23;;;1.40;;
18793;SDS011;29610;49.022;12.114;2022-11-21T10:08:48;6.50;;;1.37;;
18793;SDS011;29610;49.022;12.114;2022-11-21T10:11:32;6.20;;;1.20;;
18793;SDS011;29610;49.022;12.114;2022-11-21T10:14:43;7.80;;;1.30;;
18793;SDS011;29610;49.022;12.114;2022-11-21T10:17:25;6.90;;;1.30;;
18793;SDS011;29610;49.022;12.114;2022-11-21T10:20:08;6.13;;;1.30;;
18793;SDS011;29610;49.022;12.114;2022-11-21T10:23:08;6.80;;;1.33;;
18793;SDS011;29610;49.022;12.114;2022-11-21T10:26:02;5.90;;;1.20;;
18793;SDS011;29610;49.022;12.114;2022-11-21T10:28:44;7.00;;;1.30;;
18793;SDS011;29610;49.022;12.114;2022-11-21T10:31:23;5.87;;;1.23;;
18793;SDS011;29610;49.022;12.114;2022-11-21T10:33:56;6.20;;;1.40;;
18793;SDS011;29610;49.022;12.114;2022-11-21T10:36:29;6.00;;;1.27;;
18793;SDS011;29610;49.022;12.114;2022-11-21T10:39:06;6.43;;;1.57;;
18793;SDS011;29610;49.022;12.114;2022-11-21T10:41:46;9.10;;;1.83;;
18793;SDS011;29610;49.022;12.114;2022-11-21T10:44:24;8.73;;;1.30;;
18793;SDS011;29610;49.022;12.114;2022-11-21T10:47:19;8.60;;;1.57;;
18793;SDS011;29610;49.022;12.114;2022-11-21T10:49:56;7.90;;;1.50;;
18793;SDS011;29610;49.022;12.114;2022-11-21T10:52:31;10.80;;;1.60;;
18793;SDS011;29610;49.022;12.114;2022-11-21T10:55:08;6.77;;;1.40;;
18793;SDS011;29610;49.022;12.114;2022-11-21T10:57:41;8.27;;;1.73;;
18793;SDS011;29610;49.022;12.114;2022-11-21T11:00:17;6.63;;;1.50;;
18793;SDS011;29610;49.022;12.114;2022-11-21T11:03:09;9.60;;;1.80;;
18793;SDS011;29610;49.022;12.114;2022-11-21T11:05:54;7.10;;;1.60;;
18793;SDS011;29610;49.022;12.114;2022-11-21T11:08:25;6.37;;;1.40;;
18793;SDS011;29610;49.022;12.114;2022-11-21T11:11:00;6.60;;;1.40;;
18793;SDS011;29610;49.022;12.114;2022-11-21T11:13:34;8.53;;;2.10;;
18793;SDS011;29610;49.022;12.114;2022-11-21T11:16:25;5.90;;;1.13;;
18793;SDS011;29610;49.022;12.114;2022-11-21T11:18:59;6.33;;;1.50;;
18793;SDS011;29610;49.022;12.114;2022-11-21T11:21:41;6.93;;;1.40;;
18793;SDS011;29610;49.022;12.114;2022-11-21T11:24:19;8.73;;;1.30;;
18793;SDS011;29610;49.022;12.114;2022-11-21T11:26:54;6.40;;;1.47;;
18793;SDS011;29610;49.022;12.114;2022-11-21T11:29:32;7.50;;;1.40;;
18793;SDS011;29610;49.022;12.114;2022-11-21T11:32:20;6.73;;;1.30;;
18793;SDS011;29610;49.022;12.114;2022-11-21T11:34:58;7.80;;;1.60;;
18793;SDS011;29610;49.022;12.114;2022-11-21T11:37:37;8.03;;;1.60;;
18793;SDS011;29610;49.022;12.114;2022-11-21T11:40:13;6.40;;;1.40;;
18793;SDS011;29610;49.022;12.114;2022-11-21T11:43:04;6.87;;;1.30;;
18793;SDS011;29610;49.022;12.114;2022-11-21T11:46:18;7.97;;;1.80;;
18793;SDS011;29610;49.022;12.114;2022-11-21T11:49:27;7.40;;;1.73;;
18793;SDS011;29610;49.022;12.114;2022-11-21T11:52:27;7.47;;;2.20;;
18793;SDS011;29610;49.022;12.114;2022-11-21T11:55:06;6.50;;;1.53;;
18793;SDS011;29610;49.022;12.114;2022-11-21T11:57:51;7.00;;;1.20;;
18793;SDS011;29610;49.022;12.114;2022-11-21T12:00:28;9.23;;;1.40;;
18793;SDS011;29610;49.022;12.114;2022-11-21T12:03:17;7.97;;;1.50;;
18793;SDS011;29610;49.022;12.114;2022-11-21T12:05:55;7.87;;;1.60;;
18793;SDS011;29610;49.022;12.114;2022-11-21T12:08:39;9.10;;;1.63;;
18793;SDS011;29610;49.022;12.114;2022-11-21T12:11:27;7.00;;;1.20;;
18793;SDS011;29610;49.022;12.114;2022-11-21T12:14:31;9.30;;;1.40;;
18793;SDS011;29610;49.022;12.114;2022-11-21T12:17:31;8.00;;;1.40;;
18793;SDS011;29610;49.022;12.114;2022-11-21T12:20:12;9.93;;;1.57;;
18793;SDS011;29610;49.022;12.114;2022-11-21T12:22:47;7.07;;;1.57;;
18793;SDS011;29610;49.022;12.114;2022-11-21T12:25:22;7.23;;;1.67;;
18793;SDS011;29610;49.022;12.114;2022-11-21T12:27:56;8.77;;;1.80;;
18793;SDS011;29610;49.022;12.114;2022-11-21T12:33:36;7.67;;;1.50;;
18793;SDS011;29610;49.022;12.114;2022-11-21T12:36:18;6.43;;;1.30;;
18793;SDS011;29610;49.022;12.114;2022-11-21T12:42:09;7.90;;;1.37;;
18793;SDS011;29610;49.022;12.114;2022-11-21T12:45:07;6.20;;;1.23;;
18793;SDS011;29610;49.022;12.114;2022-11-21T12:51:23;7.17;;;1.37;;
18793;SDS011;29610;49.022;12.114;2022-11-21T12:54:51;10.10;;;1.50;;
18793;SDS011;29610;49.022;12.114;2022-11-21T12:58:06;7.73;;;1.57;;
18793;SDS011;29610;49.022;12.114;2022-11-21T13:00:54;7.90;;;1.50;;
18793;SDS011;29610;49.022;12.114;2022-11-21T13:03:53;9.20;;;1.60;;
18793;SDS011;29610;49.022;12.114;2022-11-21T13:06:29;7.03;;;1.30;;
18793;SDS011;29610;49.022;12.114;2022-11-21T13:09:04;8.80;;;1.90;;
18793;SDS011;29610;49.022;12.114;2022-11-21T13:11:43;7.90;;;1.73;;
18793;SDS011;29610;49.022;12.114;2022-11-21T13:14:34;13.03;;;1.47;;
18793;SDS011;29610;49.022;12.114;2022-11-21T13:17:13;6.77;;;1.37;;
18793;SDS011;29610;49.022;12.114;2022-11-21T13:19:56;6.90;;;1.27;;
18793;SDS011;29610;49.022;12.114;2022-11-21T13:22:49;6.40;;;1.33;;
18793;SDS011;29610;49.022;12.114;2022-11-21T13:25:34;7.30;;;1.20;;
18793;SDS011;29610;49.022;12.114;2022-11-21T13:28:22;7.70;;;1.60;;
18793;SDS011;29610;49.022;12.114;2022-11-21T13:33:58;7.40;;;1.63;;
18793;SDS011;29610;49.022;12.114;2022-11-21T13:36:35;8.47;;;1.70;;
18793;SDS011;29610;49.022;12.114;2022-11-21T13:42:04;6.77;;;1.23;;
18793;SDS011;29610;49.022;12.114;2022-11-21T13:44:56;9.87;;;2.20;;
18793;SDS011;29610;49.022;12.114;2022-11-21T13:50:47;7.30;;;1.47;;
18793;SDS011;29610;49.022;12.114;2022-11-21T13:53:55;7.10;;;1.30;;
18793;SDS011;29610;49.022;12.114;2022-11-21T13:56:54;6.20;;;1.20;;
18793;SDS011;29610;49.022;12.114;2022-11-21T13:59:42;6.93;;;1.20;;
18793;SDS011;29610;49.022;12.114;2022-11-21T14:09:19;12.23;;;2.07;;
18793;SDS011;29610;49.022;12.114;2022-11-21T14:11:55;6.60;;;1.50;;
18793;SDS011;29610;49.022;12.114;2022-11-21T14:14:29;7.80;;;1.70;;
18793;SDS011;29610;49.022;12.114;2022-11-21T14:17:18;7.33;;;1.63;;
18793;SDS011;29610;49.022;12.114;2022-11-21T14:20:14;10.17;;;1.83;;
18793;SDS011;29610;49.022;12.114;2022-11-21T14:22:58;8.23;;;1.87;;
18793;SDS011;29610;49.022;12.114;2022-11-21T14:25:40;6.90;;;1.67;;
18793;SDS011;29610;49.022;12.114;2022-11-21T14:28:15;9.77;;;1.80;;
18793;SDS011;29610;49.022;12.114;2022-11-21T14:30:55;6.17;;;1.30;;
18793;SDS011;29610;49.022;12.114;2022-11-21T14:33:26;6.63;;;1.67;;
18793;SDS011;29610;49.022;12.114;2022-11-21T14:36:00;5.80;;;1.33;;
18793;SDS011;29610;49.022;12.114;2022-11-21T14:38:34;6.83;;;1.70;;
18793;SDS011;29610;49.022;12.114;2022-11-21T14:44:00;9.30;;;2.33;;
18793;SDS011;29610;49.022;12.114;2022-11-21T14:46:45;10.27;;;2.03;;
18793;SDS011;29610;49.022;12.114;2022-11-21T14:49:22;16.20;;;2.80;;
18793;SDS011;29610;49.022;12.114;2022-11-21T14:52:00;8.60;;;2.20;;
18793;SDS011;29610;49.022;12.114;2022-11-21T14:54:45;6.63;;;1.90;;
18793;SDS011;29610;49.022;12.114;2022-11-21T14:57:39;7.47;;;2.00;;
18793;SDS011;29610;49.022;12.114;2022-11-21T15:00:13;10.87;;;2.40;;
18793;SDS011;29610;49.022;12.114;2022-11-21T15:03:14;10.83;;;2.13;;
18793;SDS011;29610;49.022;12.114;2022-11-21T15:05:48;6.50;;;1.90;;
18793;SDS011;29610;49.022;12.114;2022-11-21T15:08:32;10.73;;;2.60;;
18793;SDS011;29610;49.022;12.114;2022-11-21T15:11:27;9.03;;;2.20;;
18793;SDS011;29610;49.022;12.114;2022-11-21T15:14:03;9.07;;;2.60;;
18793;SDS011;29610;49.022;12.114;2022-11-21T15:16:44;7.53;;;2.30;;
18793;SDS011;29610;49.022;12.114;2022-11-21T15:19:19;10.03;;;2.97;;
18793;SDS011;29610;49.022;12.114;2022-11-21T15:21:50;8.97;;;3.47;;
18793;SDS011;29610;49.022;12.114;2022-11-21T15:24:29;9.30;;;4.00;;
18793;SDS011;29610;49.022;12.114;2022-11-21T15:30:05;11.70;;;3.30;;
18793;SDS011;29610;49.022;12.114;2022-11-21T15:33:00;13.70;;;4.93;;
18793;SDS011;29610;49.022;12.114;2022-11-21T15:35:38;11.03;;;5.07;;
18793;SDS011;29610;49.022;12.114;2022-11-21T15:38:17;15.80;;;5.83;;
18793;SDS011;29610;49.022;12.114;2022-11-21T15:40:54;13.50;;;4.83;;
18793;SDS011;29610;49.022;12.114;2022-11-21T15:43:51;14.90;;;4.70;;
18793;SDS011;29610;49.022;12.114;2022-11-21T15:46:23;14.30;;;5.00;;